sensor_id;sensor_type;location;lat;lon;timestamp;pressure;altitude;pressure_sealevel;temperature;humidity
50550;BME280;36505;52.512;13.460;2023-04-05T00:01:30;101950.00;;;1.51;54.19
50550;BME280;36505;52.512;13.460;2023-04-05T00:03:57;101945.78;;;1.48;54.20
50550;BME280;36505;52.512;13.460;2023-04-05T00:06:24;101933.69;;;1.35;54.13
50550;BME280;36505;52.512;13.460;2023-04-05T00:08:57;101943.88;;;1.41;54.07
50550;BME280;36505;52.512;13.460;2023-04-05T00:11:23;101950.63;;;1.45;54.07
50550;BME280;36505;52.512;13.460;2023-04-05T00:13:49;101952.66;;;1.43;54.38
50550;BME280;36505;52.512;13.460;2023-04-05T00:16:15;101933.13;;;1.31;54.40
50550;BME280;36505;52.512;13.460;2023-04-05T00:18:41;101928.91;;;1.29;55.13
50550;BME280;36505;52.512;13.460;2023-04-05T00:21:14;101943.31;;;1.37;55.26
50550;BME280;36505;52.512;13.460;2023-04-05T00:23:40;101948.56;;;1.39;55.28
50550;BME280;36505;52.512;13.460;2023-04-05T00:26:06;101940.38;;;1.31;55.50
50550;BME280;36505;52.512;13.460;2023-04-05T00:28:33;101949.75;;;1.36;55.43
50550;BME280;36505;52.512;13.460;2023-04-05T00:30:58;101944.78;;;1.32;55.68
50550;BME280;36505;52.512;13.460;2023-04-05T00:33:24;101944.13;;;1.30;55.58
50550;BME280;36505;52.512;13.460;2023-04-05T00:35:49;101925.28;;;1.20;55.42
50550;BME280;36505;52.512;13.460;2023-04-05T00:38:15;101937.47;;;1.24;55.47
50550;BME280;36505;52.512;13.460;2023-04-05T00:40:41;101943.72;;;1.25;55.13
50550;BME280;36505;52.512;13.460;2023-04-05T00:43:06;101944.03;;;1.22;54.41
50550;BME280;36505;52.512;13.460;2023-04-05T00:45:32;101944.31;;;1.18;54.28
50550;BME280;36505;52.512;13.460;2023-04-05T00:47:57;101938.56;;;1.13;54.52
50550;BME280;36505;52.512;13.460;2023-04-05T00:50:23;101939.94;;;1.17;55.40
50550;BME280;36505;52.512;13.460;2023-04-05T00:52:49;101925.69;;;1.07;55.26
50550;BME280;36505;52.512;13.460;2023-04-05T00:55:15;101936.16;;;1.10;55.15
50550;BME280;36505;52.512;13.460;2023-04-05T00:57:42;101931.09;;;1.07;55.25
50550;BME280;36505;52.512;13.460;2023-04-05T01:00:09;101943.09;;;1.13;55.28
50550;BME280;36505;52.512;13.460;2023-04-05T01:02:41;101907.88;;;0.97;55.58
50550;BME280;36505;52.512;13.460;2023-04-05T01:07:58;101937.16;;;1.09;56.15
50550;BME280;36505;52.512;13.460;2023-04-05T01:10:31;101930.75;;;1.10;56.29
50550;BME280;36505;52.512;13.460;2023-04-05T01:12:59;101923.13;;;1.06;56.30
50550;BME280;36505;52.512;13.460;2023-04-05T01:15:25;101933.78;;;1.07;56.50
50550;BME280;36505;52.512;13.460;2023-04-05T01:17:50;101929.16;;;1.00;56.70
50550;BME280;36505;52.512;13.460;2023-04-05T01:20:18;101929.53;;;1.05;56.69
50550;BME280;36505;52.512;13.460;2023-04-05T01:26:03;101930.69;;;1.02;56.98
50550;BME280;36505;52.512;13.460;2023-04-05T01:31:37;101929.28;;;0.98;57.00
50550;BME280;36505;52.512;13.460;2023-04-05T01:36:56;101933.31;;;0.94;57.29
50550;BME280;36505;52.512;13.460;2023-04-05T01:39:23;101927.91;;;0.94;57.33
50550;BME280;36505;52.512;13.460;2023-04-05T01:41:49;101925.22;;;0.94;57.30
50550;BME280;36505;52.512;13.460;2023-04-05T01:44:15;101924.38;;;0.94;57.67
50550;BME280;36505;52.512;13.460;2023-04-05T01:46:40;101926.22;;;0.93;57.31
50550;BME280;36505;52.512;13.460;2023-04-05T01:49:06;101934.16;;;0.95;57.65
50550;BME280;36505;52.512;13.460;2023-04-05T01:51:31;101906.97;;;0.88;57.22
50550;BME280;36505;52.512;13.460;2023-04-05T01:53:56;101896.31;;;0.87;57.39
50550;BME280;36505;52.512;13.460;2023-04-05T01:56:22;101916.19;;;1.03;57.13
50550;BME280;36505;52.512;13.460;2023-04-05T01:58:47;101921.13;;;1.08;57.34
50550;BME280;36505;52.512;13.460;2023-04-05T02:01:13;101883.44;;;0.98;57.04
50550;BME280;36505;52.512;13.460;2023-04-05T02:03:38;101911.09;;;1.18;57.24
50550;BME280;36505;52.512;13.460;2023-04-05T02:06:04;101897.16;;;1.23;57.25
50550;BME280;36505;52.512;13.460;2023-04-05T02:08:30;101912.03;;;1.27;56.56
50550;BME280;36505;52.512;13.460;2023-04-05T02:10:55;101912.72;;;1.29;56.40
50550;BME280;36505;52.512;13.460;2023-04-05T02:13:21;101891.91;;;1.21;56.33
50550;BME280;36505;52.512;13.460;2023-04-05T02:15:48;101889.75;;;1.25;55.93
50550;BME280;36505;52.512;13.460;2023-04-05T02:18:14;101893.06;;;1.36;56.08
50550;BME280;36505;52.512;13.460;2023-04-05T02:20:40;101897.66;;;1.44;56.59
50550;BME280;36505;52.512;13.460;2023-04-05T02:23:05;101894.66;;;1.47;56.14
50550;BME280;36505;52.512;13.460;2023-04-05T02:25:32;101885.19;;;1.43;55.74
50550;BME280;36505;52.512;13.460;2023-04-05T02:27:58;101894.88;;;1.53;55.98
50550;BME280;36505;52.512;13.460;2023-04-05T02:30:23;101880.16;;;1.48;56.17
50550;BME280;36505;52.512;13.460;2023-04-05T02:32:48;101891.53;;;1.59;56.42
50550;BME280;36505;52.512;13.460;2023-04-05T02:35:14;101874.50;;;1.59;56.51
50550;BME280;36505;52.512;13.460;2023-04-05T02:37:41;101882.50;;;1.69;56.40
50550;BME280;36505;52.512;13.460;2023-04-05T02:40:11;101875.41;;;1.68;55.48
50550;BME280;36505;52.512;13.460;2023-04-05T02:42:36;101892.28;;;1.70;55.74
50550;BME280;36505;52.512;13.460;2023-04-05T02:45:02;101874.19;;;1.62;55.88
50550;BME280;36505;52.512;13.460;2023-04-05T02:47:27;101891.50;;;1.77;55.52
50550;BME280;36505;52.512;13.460;2023-04-05T02:49:52;101889.31;;;1.81;55.34
50550;BME280;36505;52.512;13.460;2023-04-05T02:52:18;101883.44;;;1.85;55.00
50550;BME280;36505;52.512;13.460;2023-04-05T02:54:43;101874.66;;;1.83;55.38
50550;BME280;36505;52.512;13.460;2023-04-05T02:57:10;101876.31;;;1.84;55.04
50550;BME280;36505;52.512;13.460;2023-04-05T02:59:36;101861.81;;;1.85;54.61
50550;BME280;36505;52.512;13.460;2023-04-05T03:02:03;101870.81;;;1.94;54.56
50550;BME280;36505;52.512;13.460;2023-04-05T03:04:29;101877.78;;;1.96;55.01
50550;BME280;36505;52.512;13.460;2023-04-05T03:06:54;101857.16;;;1.95;54.93
50550;BME280;36505;52.512;13.460;2023-04-05T03:09:21;101873.22;;;2.05;55.54
50550;BME280;36505;52.512;13.460;2023-04-05T03:11:47;101872.06;;;2.08;55.33
50550;BME280;36505;52.512;13.460;2023-04-05T03:14:12;101866.50;;;2.09;55.53
50550;BME280;36505;52.512;13.460;2023-04-05T03:16:38;101853.81;;;2.02;55.50
50550;BME280;36505;52.512;13.460;2023-04-05T03:19:04;101866.34;;;2.11;56.01
50550;BME280;36505;52.512;13.460;2023-04-05T03:21:31;101871.56;;;2.12;55.87
50550;BME280;36505;52.512;13.460;2023-04-05T03:23:56;101860.63;;;2.14;55.80
50550;BME280;36505;52.512;13.460;2023-04-05T03:26:22;101854.00;;;2.08;56.02
50550;BME280;36505;52.512;13.460;2023-04-05T03:28:48;101866.56;;;2.17;55.59
50550;BME280;36505;52.512;13.460;2023-04-05T03:31:14;101865.31;;;2.12;55.88
50550;BME280;36505;52.512;13.460;2023-04-05T03:33:39;101858.22;;;2.03;56.24
50550;BME280;36505;52.512;13.460;2023-04-05T03:36:05;101864.66;;;2.10;56.67
50550;BME280;36505;52.512;13.460;2023-04-05T03:38:30;101866.03;;;2.14;56.89
50550;BME280;36505;52.512;13.460;2023-04-05T03:41:01;101849.81;;;2.14;57.08
50550;BME280;36505;52.512;13.460;2023-04-05T03:43:26;101830.66;;;1.99;56.88
50550;BME280;36505;52.512;13.460;2023-04-05T03:45:52;101860.63;;;2.14;57.04
50550;BME280;36505;52.512;13.460;2023-04-05T03:48:17;101855.56;;;2.11;57.08
50550;BME280;36505;52.512;13.460;2023-04-05T03:50:45;101851.81;;;2.12;56.89
50550;BME280;36505;52.512;13.460;2023-04-05T03:53:10;101848.44;;;2.10;57.40
50550;BME280;36505;52.512;13.460;2023-04-05T03:55:36;101844.41;;;2.14;57.41
50550;BME280;36505;52.512;13.460;2023-04-05T03:58:01;101832.25;;;2.10;57.75
50550;BME280;36505;52.512;13.460;2023-04-05T04:00:27;101840.88;;;2.21;58.13
50550;BME280;36505;52.512;13.460;2023-04-05T04:02:52;101844.59;;;2.20;58.28
50550;BME280;36505;52.512;13.460;2023-04-05T04:05:18;101836.84;;;2.17;58.39
50550;BME280;36505;52.512;13.460;2023-04-05T04:07:45;101847.50;;;2.27;58.96
50550;BME280;36505;52.512;13.460;2023-04-05T04:10:13;101845.78;;;2.26;58.82
50550;BME280;36505;52.512;13.460;2023-04-05T04:12:40;101851.88;;;2.28;59.12
50550;BME280;36505;52.512;13.460;2023-04-05T04:15:05;101844.78;;;2.27;58.98
50550;BME280;36505;52.512;13.460;2023-04-05T04:17:33;101843.78;;;2.28;58.88
50550;BME280;36505;52.512;13.460;2023-04-05T04:19:59;101846.81;;;2.25;59.16
50550;BME280;36505;52.512;13.460;2023-04-05T04:22:25;101849.19;;;2.28;59.63
50550;BME280;36505;52.512;13.460;2023-04-05T04:25:00;101844.13;;;2.25;59.91
50550;BME280;36505;52.512;13.460;2023-04-05T04:27:29;101833.63;;;2.22;60.15
50550;BME280;36505;52.512;13.460;2023-04-05T04:29:55;101846.69;;;2.34;60.27
50550;BME280;36505;52.512;13.460;2023-04-05T04:32:20;101843.66;;;2.37;60.17
50550;BME280;36505;52.512;13.460;2023-04-05T04:34:50;101836.88;;;2.33;60.45
50550;BME280;36505;52.512;13.460;2023-04-05T04:37:18;101849.25;;;2.44;60.52
50550;BME280;36505;52.512;13.460;2023-04-05T04:39:47;101838.56;;;2.34;60.33
50550;BME280;36505;52.512;13.460;2023-04-05T04:42:14;101855.31;;;2.46;60.61
50550;BME280;36505;52.512;13.460;2023-04-05T04:44:44;101852.31;;;2.49;60.82
50550;BME280;36505;52.512;13.460;2023-04-05T04:47:10;101843.16;;;2.42;60.60
50550;BME280;36505;52.512;13.460;2023-04-05T04:49:40;101852.13;;;2.51;60.28
50550;BME280;36505;52.512;13.460;2023-04-05T04:52:05;101850.09;;;2.53;60.69
50550;BME280;36505;52.512;13.460;2023-04-05T04:54:31;101851.78;;;2.54;60.76
50550;BME280;36505;52.512;13.460;2023-04-05T04:56:58;101850.78;;;2.55;60.34
50550;BME280;36505;52.512;13.460;2023-04-05T04:59:24;101853.00;;;2.51;60.31
50550;BME280;36505;52.512;13.460;2023-04-05T05:01:49;101848.44;;;2.52;60.20
50550;BME280;36505;52.512;13.460;2023-04-05T05:04:15;101855.03;;;2.57;60.40
50550;BME280;36505;52.512;13.460;2023-04-05T05:06:40;101856.03;;;2.56;60.23
50550;BME280;36505;52.512;13.460;2023-04-05T05:09:05;101847.06;;;2.56;60.28
50550;BME280;36505;52.512;13.460;2023-04-05T05:11:31;101850.31;;;2.59;60.35
50550;BME280;36505;52.512;13.460;2023-04-05T05:13:56;101852.31;;;2.57;60.21
50550;BME280;36505;52.512;13.460;2023-04-05T05:16:22;101854.69;;;2.60;60.03
50550;BME280;36505;52.512;13.460;2023-04-05T05:18:50;101829.31;;;2.53;59.77
50550;BME280;36505;52.512;13.460;2023-04-05T05:21:15;101850.50;;;2.66;59.42
50550;BME280;36505;52.512;13.460;2023-04-05T05:23:41;101846.59;;;2.68;59.61
50550;BME280;36505;52.512;13.460;2023-04-05T05:26:06;101836.94;;;2.58;59.33
50550;BME280;36505;52.512;13.460;2023-04-05T05:28:32;101842.19;;;2.67;58.97
50550;BME280;36505;52.512;13.460;2023-04-05T05:30:57;101846.09;;;2.65;58.80
50550;BME280;36505;52.512;13.460;2023-04-05T05:33:22;101843.88;;;2.68;59.00
50550;BME280;36505;52.512;13.460;2023-04-05T05:35:49;101816.66;;;2.62;58.73
50550;BME280;36505;52.512;13.460;2023-04-05T05:38:16;101852.88;;;2.77;59.08
50550;BME280;36505;52.512;13.460;2023-04-05T05:40:41;101838.50;;;2.85;58.75
50550;BME280;36505;52.512;13.460;2023-04-05T05:43:07;101840.00;;;2.87;58.17
50550;BME280;36505;52.512;13.460;2023-04-05T05:45:34;101828.69;;;2.84;58.43
50550;BME280;36505;52.512;13.460;2023-04-05T05:48:00;101834.97;;;2.92;58.37
50550;BME280;36505;52.512;13.460;2023-04-05T05:50:25;101828.03;;;2.98;58.10
50550;BME280;36505;52.512;13.460;2023-04-05T05:52:50;101819.59;;;2.93;57.57
50550;BME280;36505;52.512;13.460;2023-04-05T05:55:16;101822.94;;;2.95;57.52
50550;BME280;36505;52.512;13.460;2023-04-05T05:57:41;101819.94;;;3.06;57.41
50550;BME280;36505;52.512;13.460;2023-04-05T06:00:07;101818.88;;;3.15;57.29
50550;BME280;36505;52.512;13.460;2023-04-05T06:02:35;101823.63;;;3.37;57.04
50550;BME280;36505;52.512;13.460;2023-04-05T06:05:00;101821.53;;;3.64;56.92
50550;BME280;36505;52.512;13.460;2023-04-05T06:07:26;101819.63;;;3.88;56.47
50550;BME280;36505;52.512;13.460;2023-04-05T06:09:52;101829.03;;;4.09;55.80
50550;BME280;36505;52.512;13.460;2023-04-05T06:12:19;101834.88;;;4.28;55.15
50550;BME280;36505;52.512;13.460;2023-04-05T06:14:45;101827.19;;;4.32;54.25
50550;BME280;36505;52.512;13.460;2023-04-05T06:17:10;101839.00;;;4.47;52.83
50550;BME280;36505;52.512;13.460;2023-04-05T06:19:37;101839.00;;;4.47;52.94
50550;BME280;36505;52.512;13.460;2023-04-05T06:22:02;101830.44;;;4.58;52.29
50550;BME280;36505;52.512;13.460;2023-04-05T06:24:28;101836.97;;;4.72;52.35
50550;BME280;36505;52.512;13.460;2023-04-05T06:26:57;101833.94;;;4.98;51.79
50550;BME280;36505;52.512;13.460;2023-04-05T06:29:22;101828.91;;;5.09;51.38
50550;BME280;36505;52.512;13.460;2023-04-05T06:31:48;101827.72;;;5.27;51.02
50550;BME280;36505;52.512;13.460;2023-04-05T06:34:13;101824.66;;;5.30;51.26
50550;BME280;36505;52.512;13.460;2023-04-05T06:36:38;101818.59;;;5.42;50.48
50550;BME280;36505;52.512;13.460;2023-04-05T06:39:04;101823.75;;;5.37;50.51
50550;BME280;36505;52.512;13.460;2023-04-05T06:41:29;101839.84;;;5.39;50.74
50550;BME280;36505;52.512;13.460;2023-04-05T06:43:55;101826.13;;;5.32;50.88
50550;BME280;36505;52.512;13.460;2023-04-05T06:46:21;101834.81;;;5.50;51.09
50550;BME280;36505;52.512;13.460;2023-04-05T06:48:46;101829.19;;;5.52;50.87
50550;BME280;36505;52.512;13.460;2023-04-05T06:51:14;101831.34;;;5.56;50.93
50550;BME280;36505;52.512;13.460;2023-04-05T06:53:39;101838.41;;;5.66;51.27
50550;BME280;36505;52.512;13.460;2023-04-05T06:56:05;101826.59;;;5.59;51.02
50550;BME280;36505;52.512;13.460;2023-04-05T06:58:30;101830.78;;;5.61;51.26
50550;BME280;36505;52.512;13.460;2023-04-05T07:00:59;101812.22;;;5.50;51.45
50550;BME280;36505;52.512;13.460;2023-04-05T07:03:25;101797.06;;;5.55;51.61
50550;BME280;36505;52.512;13.460;2023-04-05T07:05:54;101823.50;;;5.76;51.69
50550;BME280;36505;52.512;13.460;2023-04-05T07:08:21;101829.69;;;5.85;51.24
50550;BME280;36505;52.512;13.460;2023-04-05T07:10:47;101826.53;;;5.96;51.91
50550;BME280;36505;52.512;13.460;2023-04-05T07:13:14;101823.22;;;6.15;51.32
50550;BME280;36505;52.512;13.460;2023-04-05T07:15:39;101821.75;;;6.27;50.97
50550;BME280;36505;52.512;13.460;2023-04-05T07:18:05;101815.97;;;6.37;50.79
50550;BME280;36505;52.512;13.460;2023-04-05T07:20:30;101800.66;;;6.51;50.15
50550;BME280;36505;52.512;13.460;2023-04-05T07:22:56;101791.72;;;6.57;49.75
50550;BME280;36505;52.512;13.460;2023-04-05T07:25:22;101807.34;;;6.91;49.29
50550;BME280;36505;52.512;13.460;2023-04-05T07:27:48;101820.84;;;7.48;48.72
50550;BME280;36505;52.512;13.460;2023-04-05T07:30:13;101827.69;;;8.00;47.08
50550;BME280;36505;52.512;13.460;2023-04-05T07:32:39;101822.34;;;8.19;45.45
50550;BME280;36505;52.512;13.460;2023-04-05T07:35:04;101815.81;;;8.55;45.35
50550;BME280;36505;52.512;13.460;2023-04-05T07:37:30;101806.25;;;8.98;44.06
50550;BME280;36505;52.512;13.460;2023-04-05T07:39:55;101820.75;;;9.65;43.08
50550;BME280;36505;52.512;13.460;2023-04-05T07:42:22;101830.38;;;10.00;41.59
50550;BME280;36505;52.512;13.460;2023-04-05T07:44:48;101828.56;;;10.45;40.13
50550;BME280;36505;52.512;13.460;2023-04-05T07:47:13;101830.94;;;11.11;47.03
50550;BME280;36505;52.512;13.460;2023-04-05T07:49:38;101821.03;;;12.57;41.81
50550;BME280;36505;52.512;13.460;2023-04-05T07:52:04;101813.91;;;13.86;36.46
50550;BME280;36505;52.512;13.460;2023-04-05T07:54:31;101808.75;;;14.65;35.03
50550;BME280;36505;52.512;13.460;2023-04-05T07:56:58;101807.63;;;16.49;32.75
50550;BME280;36505;52.512;13.460;2023-04-05T07:59:23;101795.63;;;17.46;29.56
50550;BME280;36505;52.512;13.460;2023-04-05T08:01:49;101806.50;;;17.95;30.05
50550;BME280;36505;52.512;13.460;2023-04-05T08:04:14;101794.19;;;18.23;27.36
50550;BME280;36505;52.512;13.460;2023-04-05T08:06:40;101801.66;;;18.84;27.15
50550;BME280;36505;52.512;13.460;2023-04-05T08:09:05;101806.88;;;18.61;26.92
50550;BME280;36505;52.512;13.460;2023-04-05T08:11:33;101799.69;;;18.85;26.98
50550;BME280;36505;52.512;13.460;2023-04-05T08:13:58;101810.31;;;19.79;25.52
50550;BME280;36505;52.512;13.460;2023-04-05T08:16:24;101804.03;;;20.53;24.06
50550;BME280;36505;52.512;13.460;2023-04-05T08:18:49;101800.34;;;19.68;26.89
50550;BME280;36505;52.512;13.460;2023-04-05T08:21:15;101808.03;;;18.80;25.67
50550;BME280;36505;52.512;13.460;2023-04-05T08:23:40;101797.13;;;18.58;25.53
50550;BME280;36505;52.512;13.460;2023-04-05T08:26:06;101801.16;;;19.38;24.97
50550;BME280;36505;52.512;13.460;2023-04-05T08:28:32;101809.47;;;19.38;24.89
50550;BME280;36505;52.512;13.460;2023-04-05T08:30:58;101804.22;;;19.52;24.23
50550;BME280;36505;52.512;13.460;2023-04-05T08:33:24;101808.59;;;18.92;24.47
50550;BME280;36505;52.512;13.460;2023-04-05T08:35:50;101803.63;;;18.99;24.42
50550;BME280;36505;52.512;13.460;2023-04-05T08:38:16;101803.13;;;19.53;24.51
50550;BME280;36505;52.512;13.460;2023-04-05T08:40:43;101799.00;;;20.55;22.94
50550;BME280;36505;52.512;13.460;2023-04-05T08:43:09;101804.66;;;20.89;22.20
50550;BME280;36505;52.512;13.460;2023-04-05T08:45:46;101799.47;;;20.72;22.71
50550;BME280;36505;52.512;13.460;2023-04-05T08:48:12;101786.28;;;20.29;22.40
50550;BME280;36505;52.512;13.460;2023-04-05T08:50:37;101797.53;;;19.83;23.71
50550;BME280;36505;52.512;13.460;2023-04-05T08:53:03;101794.28;;;21.00;22.93
50550;BME280;36505;52.512;13.460;2023-04-05T08:55:29;101793.06;;;21.50;21.69
50550;BME280;36505;52.512;13.460;2023-04-05T08:57:55;101790.94;;;20.54;22.65
50550;BME280;36505;52.512;13.460;2023-04-05T09:00:24;101796.78;;;21.01;22.35
50550;BME280;36505;52.512;13.460;2023-04-05T09:02:53;101797.53;;;20.68;22.25
50550;BME280;36505;52.512;13.460;2023-04-05T09:05:22;101797.75;;;20.07;22.91
50550;BME280;36505;52.512;13.460;2023-04-05T09:07:48;101799.72;;;20.01;22.93
50550;BME280;36505;52.512;13.460;2023-04-05T09:10:17;101780.91;;;19.48;23.19
50550;BME280;36505;52.512;13.460;2023-04-05T09:12:44;101801.56;;;20.46;22.09
50550;BME280;36505;52.512;13.460;2023-04-05T09:15:10;101783.09;;;20.66;22.12
50550;BME280;36505;52.512;13.460;2023-04-05T09:17:38;101783.22;;;20.89;22.49
50550;BME280;36505;52.512;13.460;2023-04-05T09:20:04;101781.38;;;21.19;22.13
50550;BME280;36505;52.512;13.460;2023-04-05T09:22:29;101793.69;;;21.03;22.03
50550;BME280;36505;52.512;13.460;2023-04-05T09:24:55;101796.13;;;21.19;21.97
50550;BME280;36505;52.512;13.460;2023-04-05T09:27:20;101782.59;;;20.98;21.73
50550;BME280;36505;52.512;13.460;2023-04-05T09:29:49;101785.78;;;20.17;22.18
50550;BME280;36505;52.512;13.460;2023-04-05T09:32:16;101789.91;;;20.34;22.02
50550;BME280;36505;52.512;13.460;2023-04-05T09:34:43;101786.38;;;21.22;21.79
50550;BME280;36505;52.512;13.460;2023-04-05T09:37:16;101782.81;;;20.67;21.64
50550;BME280;36505;52.512;13.460;2023-04-05T09:39:43;101764.56;;;21.29;21.01
50550;BME280;36505;52.512;13.460;2023-04-05T09:42:10;101788.13;;;21.03;21.31
50550;BME280;36505;52.512;13.460;2023-04-05T09:47:15;101788.72;;;18.38;23.26
50550;BME280;36505;52.512;13.460;2023-04-05T09:49:43;101762.56;;;17.03;24.68
50550;BME280;36505;52.512;13.460;2023-04-05T09:52:22;101788.38;;;16.81;25.24
50550;BME280;36505;52.512;13.460;2023-04-05T09:54:51;101779.75;;;17.05;24.99
50550;BME280;36505;52.512;13.460;2023-04-05T09:57:16;101789.53;;;17.12;25.45
50550;BME280;36505;52.512;13.460;2023-04-05T09:59:44;101783.50;;;16.45;25.49
50550;BME280;36505;52.512;13.460;2023-04-05T10:02:10;101777.19;;;16.06;26.71
50550;BME280;36505;52.512;13.460;2023-04-05T10:04:43;101771.56;;;15.96;26.81
50550;BME280;36505;52.512;13.460;2023-04-05T10:07:13;101780.94;;;15.95;26.66
50550;BME280;36505;52.512;13.460;2023-04-05T10:09:40;101775.25;;;15.85;26.87
50550;BME280;36505;52.512;13.460;2023-04-05T10:12:07;101767.84;;;15.90;27.19
50550;BME280;36505;52.512;13.460;2023-04-05T10:14:34;101779.53;;;15.75;27.42
50550;BME280;36505;52.512;13.460;2023-04-05T10:23:00;101780.28;;;13.96;29.75
50550;BME280;36505;52.512;13.460;2023-04-05T10:28:29;101778.38;;;13.96;30.62
50550;BME280;36505;52.512;13.460;2023-04-05T10:31:24;101770.88;;;13.57;30.48
50550;BME280;36505;52.512;13.460;2023-04-05T10:34:05;101771.66;;;12.81;31.78
50550;BME280;36505;52.512;13.460;2023-04-05T10:39:04;101774.78;;;11.63;34.13
50550;BME280;36505;52.512;13.460;2023-04-05T10:41:39;101768.59;;;11.49;34.72
50550;BME280;36505;52.512;13.460;2023-04-05T10:44:08;101764.84;;;11.19;35.05
50550;BME280;36505;52.512;13.460;2023-04-05T10:46:35;101777.03;;;10.67;35.80
50550;BME280;36505;52.512;13.460;2023-04-05T10:51:51;101773.91;;;10.19;36.92
50550;BME280;36505;52.512;13.460;2023-04-05T10:54:18;101774.28;;;9.58;37.86
50550;BME280;36505;52.512;13.460;2023-04-05T10:56:44;101773.91;;;9.41;38.94
50550;BME280;36505;52.512;13.460;2023-04-05T10:59:11;101772.81;;;9.49;39.26
50550;BME280;36505;52.512;13.460;2023-04-05T11:01:38;101755.56;;;9.55;39.06
50550;BME280;36505;52.512;13.460;2023-04-05T11:04:11;101767.47;;;9.87;39.30
50550;BME280;36505;52.512;13.460;2023-04-05T11:06:37;101774.84;;;9.86;38.74
50550;BME280;36505;52.512;13.460;2023-04-05T11:09:10;101764.72;;;9.94;38.47
50550;BME280;36505;52.512;13.460;2023-04-05T11:12:00;101766.19;;;10.03;38.50
50550;BME280;36505;52.512;13.460;2023-04-05T11:14:34;101760.03;;;10.14;38.15
50550;BME280;36505;52.512;13.460;2023-04-05T11:17:01;101730.94;;;9.68;39.12
50550;BME280;36505;52.512;13.460;2023-04-05T11:22:08;101755.38;;;9.24;40.81
50550;BME280;36505;52.512;13.460;2023-04-05T11:27:39;101762.53;;;9.05;42.11
50550;BME280;36505;52.512;13.460;2023-04-05T11:30:47;101749.06;;;9.30;41.10
50550;BME280;36505;52.512;13.460;2023-04-05T11:33:36;101751.75;;;9.63;41.54
50550;BME280;36505;52.512;13.460;2023-04-05T11:36:02;101759.53;;;9.72;40.90
50550;BME280;36505;52.512;13.460;2023-04-05T11:38:28;101734.50;;;9.62;40.42
50550;BME280;36505;52.512;13.460;2023-04-05T11:41:16;101756.38;;;9.56;40.54
50550;BME280;36505;52.512;13.460;2023-04-05T11:43:44;101760.41;;;9.53;41.10
50550;BME280;36505;52.512;13.460;2023-04-05T11:46:12;101753.91;;;9.47;41.27
50550;BME280;36505;52.512;13.460;2023-04-05T11:48:39;101761.88;;;9.42;41.49
50550;BME280;36505;52.512;13.460;2023-04-05T11:51:07;101747.38;;;9.22;42.46
50550;BME280;36505;52.512;13.460;2023-04-05T11:53:37;101729.13;;;8.77;43.13
50550;BME280;36505;52.512;13.460;2023-04-05T11:56:09;101754.31;;;8.65;43.53
50550;BME280;36505;52.512;13.460;2023-04-05T11:58:37;101745.66;;;8.49;44.32
50550;BME280;36505;52.512;13.460;2023-04-05T12:01:04;101764.03;;;8.27;44.61
50550;BME280;36505;52.512;13.460;2023-04-05T12:03:31;101753.88;;;8.08;45.05
50550;BME280;36505;52.512;13.460;2023-04-05T12:05:58;101756.16;;;7.98;45.21
50550;BME280;36505;52.512;13.460;2023-04-05T12:11:01;101754.75;;;8.15;45.85
50550;BME280;36505;52.512;13.460;2023-04-05T12:13:28;101763.78;;;8.15;45.38
50550;BME280;36505;52.512;13.460;2023-04-05T12:15:56;101750.31;;;8.07;44.76
50550;BME280;36505;52.512;13.460;2023-04-05T12:18:24;101750.94;;;8.03;44.51
50550;BME280;36505;52.512;13.460;2023-04-05T12:20:50;101739.19;;;8.02;44.82
50550;BME280;36505;52.512;13.460;2023-04-05T12:23:16;101736.47;;;8.09;44.69
50550;BME280;36505;52.512;13.460;2023-04-05T12:25:45;101745.53;;;8.16;44.78
50550;BME280;36505;52.512;13.460;2023-04-05T12:28:11;101727.91;;;8.18;44.51
50550;BME280;36505;52.512;13.460;2023-04-05T12:31:01;101738.94;;;8.45;44.40
50550;BME280;36505;52.512;13.460;2023-04-05T12:33:31;101746.13;;;8.65;43.91
50550;BME280;36505;52.512;13.460;2023-04-05T12:35:57;101739.41;;;8.88;43.61
50550;BME280;36505;52.512;13.460;2023-04-05T12:38:26;101731.44;;;8.99;43.16
50550;BME280;36505;52.512;13.460;2023-04-05T12:40:52;101731.44;;;9.06;42.64
50550;BME280;36505;52.512;13.460;2023-04-05T12:43:19;101739.63;;;8.86;43.05
50550;BME280;36505;52.512;13.460;2023-04-05T12:45:45;101728.34;;;8.28;44.60
50550;BME280;36505;52.512;13.460;2023-04-05T12:48:12;101720.72;;;8.04;45.69
50550;BME280;36505;52.512;13.460;2023-04-05T12:50:45;101722.78;;;7.96;45.27
50550;BME280;36505;52.512;13.460;2023-04-05T12:53:18;101719.81;;;7.84;45.91
50550;BME280;36505;52.512;13.460;2023-04-05T12:55:52;101724.22;;;7.91;46.36
50550;BME280;36505;52.512;13.460;2023-04-05T12:58:34;101707.25;;;7.89;45.86
50550;BME280;36505;52.512;13.460;2023-04-05T13:01:00;101714.44;;;8.10;45.50
50550;BME280;36505;52.512;13.460;2023-04-05T13:03:26;101718.69;;;8.26;45.35
50550;BME280;36505;52.512;13.460;2023-04-05T13:05:51;101709.97;;;8.50;43.77
50550;BME280;36505;52.512;13.460;2023-04-05T13:08:17;101712.91;;;8.62;42.18
50550;BME280;36505;52.512;13.460;2023-04-05T13:10:46;101707.47;;;8.75;42.00
50550;BME280;36505;52.512;13.460;2023-04-05T13:13:18;101708.31;;;8.76;42.11
50550;BME280;36505;52.512;13.460;2023-04-05T13:15:46;101714.59;;;8.63;41.71
50550;BME280;36505;52.512;13.460;2023-04-05T13:18:12;101702.44;;;8.59;42.25
50550;BME280;36505;52.512;13.460;2023-04-05T13:20:40;101700.72;;;8.51;41.92
50550;BME280;36505;52.512;13.460;2023-04-05T13:23:06;101695.88;;;8.53;42.75
50550;BME280;36505;52.512;13.460;2023-04-05T13:25:42;101685.63;;;8.62;42.42